sensor_id;sensor_type;location;lat;lon;timestamp;P1;durP1;ratioP1;P2;durP2;ratioP2
39740;SDS011;25426;53.478;10.190;2024-03-08T07:48:01;34.90;;;30.58;;
39740;SDS011;25426;53.478;10.190;2024-03-08T07:50:33;33.92;;;30.40;;
39740;SDS011;25426;53.478;10.190;2024-03-08T07:53:04;35.65;;;31.25;;
39740;SDS011;25426;53.478;10.190;2024-03-08T07:55:36;33.92;;;30.33;;
39740;SDS011;25426;53.478;10.190;2024-03-08T07:58:07;34.65;;;30.90;;
39740;SDS011;25426;53.478;10.190;2024-03-08T08:00:40;35.00;;;31.27;;
39740;SDS011;25426;53.478;10.190;2024-03-08T08:03:13;33.25;;;29.63;;
39740;SDS011;25426;53.478;10.190;2024-03-08T08:05:43;35.75;;;31.95;;
39740;SDS011;25426;53.478;10.190;2024-03-08T08:08:16;34.08;;;30.58;;
39740;SDS011;25426;53.478;10.190;2024-03-08T08:10:47;33.97;;;30.48;;
39740;SDS011;25426;53.478;10.190;2024-03-08T08:13:18;35.10;;;31.60;;
39740;SDS011;25426;53.478;10.190;2024-03-08T08:15:48;34.77;;;31.07;;
39740;SDS011;25426;53.478;10.190;2024-03-08T08:18:19;33.00;;;29.73;;
39740;SDS011;25426;53.478;10.190;2024-03-08T08:20:55;32.30;;;28.85;;
39740;SDS011;25426;53.478;10.190;2024-03-08T08:23:26;33.20;;;29.87;;
39740;SDS011;25426;53.478;10.190;2024-03-08T08:25:57;33.53;;;30.17;;
39740;SDS011;25426;53.478;10.190;2024-03-08T08:28:28;33.65;;;30.17;;
39740;SDS011;25426;53.478;10.190;2024-03-08T08:30:59;33.33;;;29.83;;
39740;SDS011;25426;53.478;10.190;2024-03-08T08:33:30;32.67;;;29.38;;
39740;SDS011;25426;53.478;10.190;2024-03-08T08:36:02;32.05;;;28.80;;
39740;SDS011;25426;53.478;10.190;2024-03-08T08:38:34;33.57;;;30.10;;
39740;SDS011;25426;53.478;10.190;2024-03-08T08:41:05;31.65;;;28.42;;
39740;SDS011;25426;53.478;10.190;2024-03-08T08:43:36;32.60;;;29.33;;
39740;SDS011;25426;53.478;10.190;2024-03-08T08:46:09;32.08;;;28.80;;
39740;SDS011;25426;53.478;10.190;2024-03-08T08:48:43;32.33;;;29.13;;
39740;SDS011;25426;53.478;10.190;2024-03-08T08:51:17;32.50;;;29.13;;
39740;SDS011;25426;53.478;10.190;2024-03-08T08:53:48;33.77;;;30.23;;
39740;SDS011;25426;53.478;10.190;2024-03-08T08:56:19;31.80;;;28.50;;
39740;SDS011;25426;53.478;10.190;2024-03-08T08:58:52;31.48;;;28.27;;
39740;SDS011;25426;53.478;10.190;2024-03-08T09:01:25;31.87;;;28.63;;
39740;SDS011;25426;53.478;10.190;2024-03-08T09:03:57;31.03;;;27.80;;
39740;SDS011;25426;53.478;10.190;2024-03-08T09:06:28;31.10;;;28.08;;
39740;SDS011;25426;53.478;10.190;2024-03-08T09:08:59;31.50;;;27.60;;
39740;SDS011;25426;53.478;10.190;2024-03-08T09:11:30;30.97;;;27.77;;
39740;SDS011;25426;53.478;10.190;2024-03-08T09:14:01;29.60;;;26.52;;
39740;SDS011;25426;53.478;10.190;2024-03-08T09:16:32;30.40;;;27.33;;
39740;SDS011;25426;53.478;10.190;2024-03-08T09:19:03;30.63;;;27.63;;
39740;SDS011;25426;53.478;10.190;2024-03-08T09:21:35;30.93;;;27.73;;
39740;SDS011;25426;53.478;10.190;2024-03-08T09:24:07;30.88;;;27.77;;
39740;SDS011;25426;53.478;10.190;2024-03-08T09:26:38;29.90;;;26.90;;
39740;SDS011;25426;53.478;10.190;2024-03-08T09:29:13;30.23;;;27.23;;
39740;SDS011;25426;53.478;10.190;2024-03-08T09:31:44;28.95;;;25.92;;
39740;SDS011;25426;53.478;10.190;2024-03-08T09:34:16;29.70;;;26.67;;
39740;SDS011;25426;53.478;10.190;2024-03-08T09:36:48;30.25;;;27.15;;
39740;SDS011;25426;53.478;10.190;2024-03-08T09:39:20;30.35;;;27.20;;
39740;SDS011;25426;53.478;10.190;2024-03-08T09:41:52;29.88;;;26.90;;
39740;SDS011;25426;53.478;10.190;2024-03-08T09:44:23;30.00;;;26.92;;
39740;SDS011;25426;53.478;10.190;2024-03-08T09:46:55;30.45;;;27.35;;
39740;SDS011;25426;53.478;10.190;2024-03-08T09:49:27;29.05;;;26.08;;
39740;SDS011;25426;53.478;10.190;2024-03-08T09:51:59;27.77;;;25.17;;
39740;SDS011;25426;53.478;10.190;2024-03-08T09:54:30;29.65;;;26.70;;
39740;SDS011;25426;53.478;10.190;2024-03-08T09:57:01;29.65;;;26.58;;
39740;SDS011;25426;53.478;10.190;2024-03-08T09:59:34;29.20;;;26.40;;
39740;SDS011;25426;53.478;10.190;2024-03-08T10:02:11;29.80;;;26.63;;
39740;SDS011;25426;53.478;10.190;2024-03-08T10:04:45;30.33;;;27.33;;
39740;SDS011;25426;53.478;10.190;2024-03-08T10:07:16;30.03;;;27.13;;
39740;SDS011;25426;53.478;10.190;2024-03-08T10:09:47;29.13;;;26.33;;
39740;SDS011;25426;53.478;10.190;2024-03-08T10:12:20;29.30;;;26.37;;
39740;SDS011;25426;53.478;10.190;2024-03-08T10:14:51;29.27;;;26.42;;
39740;SDS011;25426;53.478;10.190;2024-03-08T10:17:26;30.25;;;27.15;;
39740;SDS011;25426;53.478;10.190;2024-03-08T10:20:02;29.67;;;26.67;;
39740;SDS011;25426;53.478;10.190;2024-03-08T10:22:34;29.83;;;26.83;;
39740;SDS011;25426;53.478;10.190;2024-03-08T10:25:05;28.83;;;26.02;;
39740;SDS011;25426;53.478;10.190;2024-03-08T10:27:40;29.10;;;26.13;;
39740;SDS011;25426;53.478;10.190;2024-03-08T10:30:15;29.23;;;26.30;;
39740;SDS011;25426;53.478;10.190;2024-03-08T10:32:50;27.95;;;25.23;;
39740;SDS011;25426;53.478;10.190;2024-03-08T10:35:21;29.40;;;26.50;;
39740;SDS011;25426;53.478;10.190;2024-03-08T10:37:53;27.95;;;25.15;;
39740;SDS011;25426;53.478;10.190;2024-03-08T10:40:31;27.35;;;24.75;;
39740;SDS011;25426;53.478;10.190;2024-03-08T10:43:03;26.45;;;23.90;;
39740;SDS011;25426;53.478;10.190;2024-03-08T10:45:34;27.55;;;24.90;;
39740;SDS011;25426;53.478;10.190;2024-03-08T10:48:29;26.98;;;24.38;;
39740;SDS011;25426;53.478;10.190;2024-03-08T10:51:04;27.85;;;25.05;;
39740;SDS011;25426;53.478;10.190;2024-03-08T10:53:35;26.58;;;23.85;;
39740;SDS011;25426;53.478;10.190;2024-03-08T10:56:09;30.15;;;25.23;;
39740;SDS011;25426;53.478;10.190;2024-03-08T10:58:40;25.97;;;23.30;;
39740;SDS011;25426;53.478;10.190;2024-03-08T11:01:11;25.63;;;23.13;;
39740;SDS011;25426;53.478;10.190;2024-03-08T11:06:15;26.20;;;23.63;;
39740;SDS011;25426;53.478;10.190;2024-03-08T11:08:48;25.63;;;23.02;;
39740;SDS011;25426;53.478;10.190;2024-03-08T11:11:26;25.17;;;22.67;;
39740;SDS011;25426;53.478;10.190;2024-03-08T11:14:02;25.02;;;22.63;;
39740;SDS011;25426;53.478;10.190;2024-03-08T11:19:06;22.95;;;20.65;;
39740;SDS011;25426;53.478;10.190;2024-03-08T11:21:42;24.50;;;21.57;;
39740;SDS011;25426;53.478;10.190;2024-03-08T11:24:14;24.70;;;21.27;;
39740;SDS011;25426;53.478;10.190;2024-03-08T11:26:46;24.27;;;21.90;;
39740;SDS011;25426;53.478;10.190;2024-03-08T11:32:12;23.50;;;21.17;;
39740;SDS011;25426;53.478;10.190;2024-03-08T11:34:47;24.67;;;22.10;;
39740;SDS011;25426;53.478;10.190;2024-03-08T11:37:20;24.83;;;22.40;;
39740;SDS011;25426;53.478;10.190;2024-03-08T11:39:52;25.13;;;22.65;;
39740;SDS011;25426;53.478;10.190;2024-03-08T11:42:28;25.38;;;22.80;;
39740;SDS011;25426;53.478;10.190;2024-03-08T11:45:00;24.83;;;22.40;;
39740;SDS011;25426;53.478;10.190;2024-03-08T11:47:34;24.48;;;22.02;;
39740;SDS011;25426;53.478;10.190;2024-03-08T11:50:06;24.70;;;22.25;;
39740;SDS011;25426;53.478;10.190;2024-03-08T11:52:42;24.30;;;22.00;;
39740;SDS011;25426;53.478;10.190;2024-03-08T11:55:14;22.55;;;20.35;;
39740;SDS011;25426;53.478;10.190;2024-03-08T11:57:45;24.00;;;21.67;;
39740;SDS011;25426;53.478;10.190;2024-03-08T12:00:16;22.15;;;19.90;;
39740;SDS011;25426;53.478;10.190;2024-03-08T12:03:02;22.67;;;20.48;;
39740;SDS011;25426;53.478;10.190;2024-03-08T12:05:39;21.80;;;19.70;;
39740;SDS011;25426;53.478;10.190;2024-03-08T12:08:10;22.42;;;20.23;;
39740;SDS011;25426;53.478;10.190;2024-03-08T12:10:43;22.45;;;20.35;;
39740;SDS011;25426;53.478;10.190;2024-03-08T12:13:14;22.08;;;19.98;;
39740;SDS011;25426;53.478;10.190;2024-03-08T12:15:45;22.85;;;20.50;;
39740;SDS011;25426;53.478;10.190;2024-03-08T12:18:15;22.20;;;20.00;;
39740;SDS011;25426;53.478;10.190;2024-03-08T12:20:46;21.90;;;19.80;;
39740;SDS011;25426;53.478;10.190;2024-03-08T12:23:20;22.98;;;20.67;;
39740;SDS011;25426;53.478;10.190;2024-03-08T12:25:50;22.70;;;20.20;;
39740;SDS011;25426;53.478;10.190;2024-03-08T12:28:21;21.13;;;19.02;;
39740;SDS011;25426;53.478;10.190;2024-03-08T12:30:52;22.00;;;19.73;;
39740;SDS011;25426;53.478;10.190;2024-03-08T12:33:26;22.05;;;19.90;;
39740;SDS011;25426;53.478;10.190;2024-03-08T12:35:57;22.58;;;20.15;;
39740;SDS011;25426;53.478;10.190;2024-03-08T12:38:28;22.33;;;20.13;;
39740;SDS011;25426;53.478;10.190;2024-03-08T12:41:01;21.33;;;19.13;;
39740;SDS011;25426;53.478;10.190;2024-03-08T12:43:32;22.20;;;20.10;;
39740;SDS011;25426;53.478;10.190;2024-03-08T12:46:04;22.60;;;20.30;;
39740;SDS011;25426;53.478;10.190;2024-03-08T12:48:35;22.38;;;20.17;;
39740;SDS011;25426;53.478;10.190;2024-03-08T12:51:10;22.55;;;20.35;;
39740;SDS011;25426;53.478;10.190;2024-03-08T12:53:41;22.52;;;20.30;;
39740;SDS011;25426;53.478;10.190;2024-03-08T12:56:16;23.17;;;20.77;;
39740;SDS011;25426;53.478;10.190;2024-03-08T12:58:59;20.87;;;18.83;;
39740;SDS011;25426;53.478;10.190;2024-03-08T13:01:31;21.65;;;19.55;;
39740;SDS011;25426;53.478;10.190;2024-03-08T13:04:03;21.83;;;19.70;;
39740;SDS011;25426;53.478;10.190;2024-03-08T13:06:36;21.15;;;19.05;;
39740;SDS011;25426;53.478;10.190;2024-03-08T13:10:13;21.52;;;19.25;;
39740;SDS011;25426;53.478;10.190;2024-03-08T13:12:44;22.27;;;19.98;;
39740;SDS011;25426;53.478;10.190;2024-03-08T13:15:15;20.40;;;18.33;;
39740;SDS011;25426;53.478;10.190;2024-03-08T13:17:50;21.35;;;19.17;;
39740;SDS011;25426;53.478;10.190;2024-03-08T13:20:21;20.67;;;18.45;;
39740;SDS011;25426;53.478;10.190;2024-03-08T13:22:53;19.90;;;17.92;;
39740;SDS011;25426;53.478;10.190;2024-03-08T13:25:24;19.90;;;17.90;;
39740;SDS011;25426;53.478;10.190;2024-03-08T13:27:55;21.33;;;18.65;;
39740;SDS011;25426;53.478;10.190;2024-03-08T13:30:29;19.87;;;17.77;;
39740;SDS011;25426;53.478;10.190;2024-03-08T13:33:00;19.48;;;17.48;;
39740;SDS011;25426;53.478;10.190;2024-03-08T13:35:34;19.60;;;17.60;;
39740;SDS011;25426;53.478;10.190;2024-03-08T13:38:05;19.87;;;17.67;;
39740;SDS011;25426;53.478;10.190;2024-03-08T13:40:39;20.48;;;17.13;;
39740;SDS011;25426;53.478;10.190;2024-03-08T13:43:10;20.13;;;18.10;;
39740;SDS011;25426;53.478;10.190;2024-03-08T13:45:41;20.03;;;18.03;;
39740;SDS011;25426;53.478;10.190;2024-03-08T13:48:12;19.38;;;17.38;;
39740;SDS011;25426;53.478;10.190;2024-03-08T13:50:43;19.10;;;17.00;;
39740;SDS011;25426;53.478;10.190;2024-03-08T13:53:14;18.80;;;16.90;;
39740;SDS011;25426;53.478;10.190;2024-03-08T13:55:45;18.67;;;16.57;;
39740;SDS011;25426;53.478;10.190;2024-03-08T13:58:16;20.13;;;18.08;;
39740;SDS011;25426;53.478;10.190;2024-03-08T14:00:47;20.75;;;18.55;;
39740;SDS011;25426;53.478;10.190;2024-03-08T14:03:18;22.10;;;18.93;;
39740;SDS011;25426;53.478;10.190;2024-03-08T14:05:50;20.23;;;18.13;;
39740;SDS011;25426;53.478;10.190;2024-03-08T14:08:22;19.73;;;17.63;;
39740;SDS011;25426;53.478;10.190;2024-03-08T14:10:54;19.08;;;16.92;;
39740;SDS011;25426;53.478;10.190;2024-03-08T14:13:25;21.45;;;18.23;;
39740;SDS011;25426;53.478;10.190;2024-03-08T14:15:56;20.98;;;18.73;;
39740;SDS011;25426;53.478;10.190;2024-03-08T14:18:27;21.00;;;18.77;;
39740;SDS011;25426;53.478;10.190;2024-03-08T14:20:59;22.02;;;18.80;;
39740;SDS011;25426;53.478;10.190;2024-03-08T14:23:30;21.13;;;18.85;;
39740;SDS011;25426;53.478;10.190;2024-03-08T14:26:03;20.08;;;17.73;;
39740;SDS011;25426;53.478;10.190;2024-03-08T14:28:34;20.92;;;18.67;;
39740;SDS011;25426;53.478;10.190;2024-03-08T14:31:05;19.65;;;17.55;;
39740;SDS011;25426;53.478;10.190;2024-03-08T14:33:40;19.23;;;17.25;;
39740;SDS011;25426;53.478;10.190;2024-03-08T14:36:12;19.90;;;17.55;;
39740;SDS011;25426;53.478;10.190;2024-03-08T14:38:43;19.75;;;17.65;;
39740;SDS011;25426;53.478;10.190;2024-03-08T14:41:17;19.58;;;17.55;;
39740;SDS011;25426;53.478;10.190;2024-03-08T14:43:48;19.75;;;17.75;;
39740;SDS011;25426;53.478;10.190;2024-03-08T14:46:19;20.02;;;18.00;;
39740;SDS011;25426;53.478;10.190;2024-03-08T14:48:50;20.50;;;18.17;;
39740;SDS011;25426;53.478;10.190;2024-03-08T14:51:21;19.60;;;17.63;;
39740;SDS011;25426;53.478;10.190;2024-03-08T14:53:56;20.13;;;17.70;;
39740;SDS011;25426;53.478;10.190;2024-03-08T14:56:27;21.98;;;17.88;;
39740;SDS011;25426;53.478;10.190;2024-03-08T14:58:58;21.13;;;18.20;;
39740;SDS011;25426;53.478;10.190;2024-03-08T15:01:29;18.73;;;16.73;;
39740;SDS011;25426;53.478;10.190;2024-03-08T15:04:03;18.80;;;16.85;;
39740;SDS011;25426;53.478;10.190;2024-03-08T15:06:38;18.60;;;16.60;;
39740;SDS011;25426;53.478;10.190;2024-03-08T15:09:12;19.70;;;17.33;;
39740;SDS011;25426;53.478;10.190;2024-03-08T15:11:47;20.88;;;16.92;;
39740;SDS011;25426;53.478;10.190;2024-03-08T15:14:20;19.13;;;17.17;;
39740;SDS011;25426;53.478;10.190;2024-03-08T15:16:50;18.10;;;16.10;;
39740;SDS011;25426;53.478;10.190;2024-03-08T15:19:21;20.50;;;17.27;;
39740;SDS011;25426;53.478;10.190;2024-03-08T15:21:52;20.55;;;17.02;;
39740;SDS011;25426;53.478;10.190;2024-03-08T15:24:26;19.58;;;17.40;;
39740;SDS011;25426;53.478;10.190;2024-03-08T15:26:58;19.95;;;17.65;;
39740;SDS011;25426;53.478;10.190;2024-03-08T15:29:31;19.90;;;16.98;;
39740;SDS011;25426;53.478;10.190;2024-03-08T15:32:03;19.20;;;17.20;;
39740;SDS011;25426;53.478;10.190;2024-03-08T15:34:36;20.02;;;17.65;;
39740;SDS011;25426;53.478;10.190;2024-03-08T15:37:08;18.13;;;16.13;;
39740;SDS011;25426;53.478;10.190;2024-03-08T15:39:43;18.90;;;16.90;;
39740;SDS011;25426;53.478;10.190;2024-03-08T15:42:16;20.13;;;16.83;;
39740;SDS011;25426;53.478;10.190;2024-03-08T15:44:47;18.70;;;16.70;;
39740;SDS011;25426;53.478;10.190;2024-03-08T15:47:18;19.02;;;16.63;;
39740;SDS011;25426;53.478;10.190;2024-03-08T15:49:49;18.70;;;16.52;;
39740;SDS011;25426;53.478;10.190;2024-03-08T15:52:21;18.48;;;16.15;;
39740;SDS011;25426;53.478;10.190;2024-03-08T15:54:52;20.70;;;16.85;;
39740;SDS011;25426;53.478;10.190;2024-03-08T15:57:23;18.42;;;16.38;;
39740;SDS011;25426;53.478;10.190;2024-03-08T15:59:54;19.67;;;17.57;;
39740;SDS011;25426;53.478;10.190;2024-03-08T16:02:29;19.38;;;16.02;;
39740;SDS011;25426;53.478;10.190;2024-03-08T16:05:00;19.40;;;16.10;;
39740;SDS011;25426;53.478;10.190;2024-03-08T16:07:32;18.95;;;16.60;;
39740;SDS011;25426;53.478;10.190;2024-03-08T16:10:03;20.20;;;17.52;;
39740;SDS011;25426;53.478;10.190;2024-03-08T16:12:37;18.88;;;16.80;;
39740;SDS011;25426;53.478;10.190;2024-03-08T16:15:09;18.98;;;15.98;;
39740;SDS011;25426;53.478;10.190;2024-03-08T16:17:40;20.75;;;17.13;;
39740;SDS011;25426;53.478;10.190;2024-03-08T16:20:11;18.83;;;16.83;;
39740;SDS011;25426;53.478;10.190;2024-03-08T16:22:44;19.10;;;16.20;;
39740;SDS011;25426;53.478;10.190;2024-03-08T16:25:15;19.05;;;17.00;;
39740;SDS011;25426;53.478;10.190;2024-03-08T16:27:48;19.17;;;16.55;;
39740;SDS011;25426;53.478;10.190;2024-03-08T16:30:20;19.05;;;16.80;;
39740;SDS011;25426;53.478;10.190;2024-03-08T16:32:52;19.42;;;16.52;;
39740;SDS011;25426;53.478;10.190;2024-03-08T16:35:23;18.60;;;16.37;;
39740;SDS011;25426;53.478;10.190;2024-03-08T16:37:54;20.45;;;17.70;;
39740;SDS011;25426;53.478;10.190;2024-03-08T16:40:25;20.27;;;17.50;;
39740;SDS011;25426;53.478;10.190;2024-03-08T16:42:57;20.77;;;17.50;;
39740;SDS011;25426;53.478;10.190;2024-03-08T16:45:28;22.70;;;18.50;;
39740;SDS011;25426;53.478;10.190;2024-03-08T16:47:59;20.27;;;17.48;;
39740;SDS011;25426;53.478;10.190;2024-03-08T16:50:30;20.58;;;17.38;;
39740;SDS011;25426;53.478;10.190;2024-03-08T16:53:02;21.87;;;17.80;;
39740;SDS011;25426;53.478;10.190;2024-03-08T16:55:37;20.90;;;18.30;;
39740;SDS011;25426;53.478;10.190;2024-03-08T16:58:08;21.77;;;18.40;;
39740;SDS011;25426;53.478;10.190;2024-03-08T17:00:44;21.87;;;18.50;;
39740;SDS011;25426;53.478;10.190;2024-03-08T17:03:15;22.52;;;19.05;;
39740;SDS011;25426;53.478;10.190;2024-03-08T17:05:46;22.65;;;18.85;;
39740;SDS011;25426;53.478;10.190;2024-03-08T17:08:21;21.33;;;19.02;;
39740;SDS011;25426;53.478;10.190;2024-03-08T17:10:52;23.27;;;20.77;;
39740;SDS011;25426;53.478;10.190;2024-03-08T17:13:25;24.45;;;21.80;;
39740;SDS011;25426;53.478;10.190;2024-03-08T17:15:56;23.48;;;19.38;;
39740;SDS011;25426;53.478;10.190;2024-03-08T17:18:27;21.03;;;18.70;;
39740;SDS011;25426;53.478;10.190;2024-03-08T17:20:59;22.23;;;18.97;;
39740;SDS011;25426;53.478;10.190;2024-03-08T17:23:30;22.23;;;19.15;;
39740;SDS011;25426;53.478;10.190;2024-03-08T17:26:01;23.48;;;19.23;;
39740;SDS011;25426;53.478;10.190;2024-03-08T17:28:34;23.90;;;21.40;;
39740;SDS011;25426;53.478;10.190;2024-03-08T17:31:08;23.95;;;21.40;;
39740;SDS011;25426;53.478;10.190;2024-03-08T17:33:41;23.50;;;21.02;;
39740;SDS011;25426;53.478;10.190;2024-03-08T17:36:12;27.27;;;22.30;;
39740;SDS011;25426;53.478;10.190;2024-03-08T17:38:46;25.77;;;22.97;;
39740;SDS011;25426;53.478;10.190;2024-03-08T17:41:18;30.45;;;26.15;;
39740;SDS011;25426;53.478;10.190;2024-03-08T17:43:52;30.00;;;26.35;;
39740;SDS011;25426;53.478;10.190;2024-03-08T17:46:23;34.23;;;28.20;;
39740;SDS011;25426;53.478;10.190;2024-03-08T17:48:55;40.65;;;36.28;;
39740;SDS011;25426;53.478;10.190;2024-03-08T17:51:26;25.42;;;22.75;;
39740;SDS011;25426;53.478;10.190;2024-03-08T17:53:57;25.33;;;21.42;;
39740;SDS011;25426;53.478;10.190;2024-03-08T17:56:29;25.88;;;23.00;;
39740;SDS011;25426;53.478;10.190;2024-03-08T17:59:00;24.98;;;21.63;;
39740;SDS011;25426;53.478;10.190;2024-03-08T18:01:33;28.80;;;25.85;;
39740;SDS011;25426;53.478;10.190;2024-03-08T18:04:09;28.63;;;22.20;;
39740;SDS011;25426;53.478;10.190;2024-03-08T18:06:40;23.73;;;21.23;;
39740;SDS011;25426;53.478;10.190;2024-03-08T18:09:11;23.00;;;20.25;;
39740;SDS011;25426;53.478;10.190;2024-03-08T18:11:42;22.92;;;20.45;;
39740;SDS011;25426;53.478;10.190;2024-03-08T18:14:13;22.98;;;19.50;;
39740;SDS011;25426;53.478;10.190;2024-03-08T18:16:44;23.85;;;20.52;;
39740;SDS011;25426;53.478;10.190;2024-03-08T18:19:15;25.60;;;20.85;;
39740;SDS011;25426;53.478;10.190;2024-03-08T18:21:49;23.63;;;20.25;;
39740;SDS011;25426;53.478;10.190;2024-03-08T18:24:20;25.73;;;21.05;;
39740;SDS011;25426;53.478;10.190;2024-03-08T18:26:51;22.27;;;19.75;;
39740;SDS011;25426;53.478;10.190;2024-03-08T18:29:23;23.05;;;18.95;;
39740;SDS011;25426;53.478;10.190;2024-03-08T18:31:54;24.17;;;20.77;;
39740;SDS011;25426;53.478;10.190;2024-03-08T18:34:25;24.10;;;20.33;;
39740;SDS011;25426;53.478;10.190;2024-03-08T18:36:56;24.60;;;20.77;;
39740;SDS011;25426;53.478;10.190;2024-03-08T18:39:27;23.63;;;19.85;;
39740;SDS011;25426;53.478;10.190;2024-03-08T18:41:57;23.80;;;19.73;;
39740;SDS011;25426;53.478;10.190;2024-03-08T18:44:28;23.92;;;19.95;;
39740;SDS011;25426;53.478;10.190;2024-03-08T18:46:59;24.10;;;21.45;;
39740;SDS011;25426;53.478;10.190;2024-03-08T18:49:30;21.95;;;19.52;;
39740;SDS011;25426;53.478;10.190;2024-03-08T18:52:01;23.67;;;19.53;;
39740;SDS011;25426;53.478;10.190;2024-03-08T18:54:32;22.97;;;19.23;;
39740;SDS011;25426;53.478;10.190;2024-03-08T18:57:04;24.23;;;19.90;;
39740;SDS011;25426;53.478;10.190;2024-03-08T18:59:35;22.20;;;19.40;;
39740;SDS011;25426;53.478;10.190;2024-03-08T19:02:06;23.20;;;19.63;;
39740;SDS011;25426;53.478;10.190;2024-03-08T19:04:37;25.95;;;22.63;;
39740;SDS011;25426;53.478;10.190;2024-03-08T19:07:08;26.08;;;20.88;;
39740;SDS011;25426;53.478;10.190;2024-03-08T19:09:41;23.48;;;20.08;;
39740;SDS011;25426;53.478;10.190;2024-03-08T19:12:15;25.92;;;21.27;;
39740;SDS011;25426;53.478;10.190;2024-03-08T19:14:46;24.83;;;21.57;;
39740;SDS011;25426;53.478;10.190;2024-03-08T19:17:17;23.13;;;20.13;;
39740;SDS011;25426;53.478;10.190;2024-03-08T19:19:48;22.00;;;18.90;;
39740;SDS011;25426;53.478;10.190;2024-03-08T19:22:19;23.27;;;19.38;;
39740;SDS011;25426;53.478;10.190;2024-03-08T19:24:50;22.20;;;18.95;;
39740;SDS011;25426;53.478;10.190;2024-03-08T19:27:21;24.60;;;19.27;;
39740;SDS011;25426;53.478;10.190;2024-03-08T19:29:52;22.75;;;19.52;;
39740;SDS011;25426;53.478;10.190;2024-03-08T19:32:24;25.10;;;20.35;;
39740;SDS011;25426;53.478;10.190;2024-03-08T19:34:56;23.30;;;19.50;;
39740;SDS011;25426;53.478;10.190;2024-03-08T19:37:29;23.77;;;20.25;;
39740;SDS011;25426;53.478;10.190;2024-03-08T19:40:00;24.30;;;19.70;;
39740;SDS011;25426;53.478;10.190;2024-03-08T19:42:35;22.65;;;18.95;;
39740;SDS011;25426;53.478;10.190;2024-03-08T19:45:06;24.27;;;20.25;;
39740;SDS011;25426;53.478;10.190;2024-03-08T19:47:40;22.65;;;19.50;;
39740;SDS011;25426;53.478;10.190;2024-03-08T19:50:16;23.48;;;19.48;;
39740;SDS011;25426;53.478;10.190;2024-03-08T19:52:47;22.98;;;19.25;;
39740;SDS011;25426;53.478;10.190;2024-03-08T19:55:21;23.60;;;19.70;;
39740;SDS011;25426;53.478;10.190;2024-03-08T19:57:52;22.92;;;19.73;;
39740;SDS011;25426;53.478;10.190;2024-03-08T20:00:26;23.27;;;19.15;;
39740;SDS011;25426;53.478;10.190;2024-03-08T20:02:59;23.33;;;20.27;;
39740;SDS011;25426;53.478;10.190;2024-03-08T20:05:32;23.60;;;19.87;;
39740;SDS011;25426;53.478;10.190;2024-03-08T20:08:04;25.43;;;19.63;;
39740;SDS011;25426;53.478;10.190;2024-03-08T20:10:56;23.98;;;20.23;;
39740;SDS011;25426;53.478;10.190;2024-03-08T20:13:32;23.13;;;19.75;;
39740;SDS011;25426;53.478;10.190;2024-03-08T20:16:03;25.23;;;20.10;;
39740;SDS011;25426;53.478;10.190;2024-03-08T20:18:35;23.53;;;20.43;;
39740;SDS011;25426;53.478;10.190;2024-03-08T20:21:06;24.27;;;20.50;;
39740;SDS011;25426;53.478;10.190;2024-03-08T20:23:38;23.23;;;19.60;;
39740;SDS011;25426;53.478;10.190;2024-03-08T20:26:11;23.50;;;20.13;;
39740;SDS011;25426;53.478;10.190;2024-03-08T20:28:45;21.95;;;18.95;;
39740;SDS011;25426;53.478;10.190;2024-03-08T20:31:16;24.13;;;19.27;;
39740;SDS011;25426;53.478;10.190;2024-03-08T20:33:47;23.85;;;19.73;;
39740;SDS011;25426;53.478;10.190;2024-03-08T20:36:18;25.90;;;19.57;;
39740;SDS011;25426;53.478;10.190;2024-03-08T20:38:49;21.38;;;18.90;;
39740;SDS011;25426;53.478;10.190;2024-03-08T20:41:20;23.50;;;19.33;;
39740;SDS011;25426;53.478;10.190;2024-03-08T20:43:51;22.42;;;19.05;;
39740;SDS011;25426;53.478;10.190;2024-03-08T20:46:22;23.23;;;19.13;;
39740;SDS011;25426;53.478;10.190;2024-03-08T20:48:56;23.25;;;18.77;;
39740;SDS011;25426;53.478;10.190;2024-03-08T20:51:29;22.17;;;18.83;;
39740;SDS011;25426;53.478;10.190;2024-03-08T20:54:00;22.00;;;18.55;;
39740;SDS011;25426;53.478;10.190;2024-03-08T20:56:35;23.30;;;19.40;;
39740;SDS011;25426;53.478;10.190;2024-03-08T20:59:06;25.38;;;19.95;;
39740;SDS011;25426;53.478;10.190;2024-03-08T21:01:37;23.20;;;18.83;;
39740;SDS011;25426;53.478;10.190;2024-03-08T21:04:08;22.15;;;18.73;;
39740;SDS011;25426;53.478;10.190;2024-03-08T21:06:43;25.45;;;19.98;;
39740;SDS011;25426;53.478;10.190;2024-03-08T21:09:15;25.02;;;19.85;;
39740;SDS011;25426;53.478;10.190;2024-03-08T21:11:45;23.90;;;20.35;;
39740;SDS011;25426;53.478;10.190;2024-03-08T21:14:17;24.27;;;20.47;;
39740;SDS011;25426;53.478;10.190;2024-03-08T21:16:48;23.35;;;19.80;;
39740;SDS011;25426;53.478;10.190;2024-03-08T21:19:19;24.45;;;20.08;;
39740;SDS011;25426;53.478;10.190;2024-03-08T21:24:49;23.38;;;18.98;;
39740;SDS011;25426;53.478;10.190;2024-03-08T21:27:21;23.73;;;19.10;;
39740;SDS011;25426;53.478;10.190;2024-03-08T21:29:55;25.98;;;20.02;;
39740;SDS011;25426;53.478;10.190;2024-03-08T21:32:29;25.58;;;20.00;;
39740;SDS011;25426;53.478;10.190;2024-03-08T21:35:01;25.65;;;19.77;;
39740;SDS011;25426;53.478;10.190;2024-03-08T21:37:32;24.83;;;19.25;;
39740;SDS011;25426;53.478;10.190;2024-03-08T21:40:05;25.83;;;20.35;;
39740;SDS011;25426;53.478;10.190;2024-03-08T21:42:50;25.08;;;19.73;;
39740;SDS011;25426;53.478;10.190;2024-03-08T21:45:24;24.95;;;19.67;;
39740;SDS011;25426;53.478;10.190;2024-03-08T21:48:02;25.25;;;20.13;;
39740;SDS011;25426;53.478;10.190;2024-03-08T21:50:34;25.08;;;19.75;;
39740;SDS011;25426;53.478;10.190;2024-03-08T21:53:05;22.25;;;19.05;;
39740;SDS011;25426;53.478;10.190;2024-03-08T21:55:41;23.00;;;19.05;;
39740;SDS011;25426;53.478;10.190;2024-03-08T21:58:14;24.83;;;19.77;;
39740;SDS011;25426;53.478;10.190;2024-03-08T22:00:47;22.50;;;18.80;;
39740;SDS011;25426;53.478;10.190;2024-03-08T22:03:18;24.40;;;19.65;;
39740;SDS011;25426;53.478;10.190;2024-03-08T22:05:51;26.25;;;20.40;;
39740;SDS011;25426;53.478;10.190;2024-03-08T22:08:22;22.53;;;18.63;;
39740;SDS011;25426;53.478;10.190;2024-03-08T22:10:53;22.90;;;19.33;;
39740;SDS011;25426;53.478;10.190;2024-03-08T22:13:25;23.40;;;19.75;;
39740;SDS011;25426;53.478;10.190;2024-03-08T22:15:56;24.20;;;19.60;;
39740;SDS011;25426;53.478;10.190;2024-03-08T22:18:27;26.08;;;20.13;;
39740;SDS011;25426;53.478;10.190;2024-03-08T22:21:02;24.95;;;19.85;;
39740;SDS011;25426;53.478;10.190;2024-03-08T22:23:33;23.77;;;19.60;;
39740;SDS011;25426;53.478;10.190;2024-03-08T22:26:04;23.15;;;19.25;;
39740;SDS011;25426;53.478;10.190;2024-03-08T22:28:39;24.77;;;19.95;;
39740;SDS011;25426;53.478;10.190;2024-03-08T22:31:11;24.70;;;20.47;;
39740;SDS011;25426;53.478;10.190;2024-03-08T22:33:42;22.98;;;19.55;;
39740;SDS011;25426;53.478;10.190;2024-03-08T22:36:13;27.08;;;20.10;;